createdAt,value
2022-09-24T00:01:49.218Z,69.67
2022-09-24T00:04:17.124Z,70.23
2022-09-24T00:06:47.245Z,70.13
2022-09-24T00:09:22.139Z,70.62
2022-09-24T00:11:52.314Z,70.22
2022-09-24T00:14:20.739Z,69.93
2022-09-24T00:16:49.744Z,70.16
2022-09-24T00:19:18.022Z,70.30
2022-09-24T00:21:45.993Z,70.04
2022-09-24T00:24:32.271Z,69.98
2022-09-24T00:27:00.359Z,69.50
2022-09-24T00:29:28.526Z,69.44
2022-09-24T00:31:56.807Z,69.83
2022-09-24T00:34:24.864Z,69.77
2022-09-24T00:36:53.468Z,70.07
2022-09-24T00:39:22.751Z,70.07
2022-09-24T00:41:50.755Z,69.92
2022-09-24T00:44:54.505Z,70.15
2022-09-24T00:47:36.077Z,70.16
2022-09-24T00:50:25.109Z,70.13
2022-09-24T00:52:57.504Z,69.99
2022-09-24T00:55:28.450Z,70.04
2022-09-24T00:57:58.337Z,70.04
2022-09-24T01:00:26.968Z,70.23
2022-09-24T01:03:01.727Z,70.88
2022-09-24T01:05:29.828Z,71.35
2022-09-24T01:07:58.189Z,71.98
2022-09-24T01:10:55.287Z,71.88
2022-09-24T01:13:43.335Z,71.99
2022-09-24T01:16:20.914Z,72.33
2022-09-24T01:18:55.308Z,72.54
2022-09-24T01:21:33.318Z,72.26
2022-09-24T01:24:14.533Z,72.21
2022-09-24T01:27:01.626Z,72.07
2022-09-24T01:29:41.852Z,71.95
2022-09-24T01:32:14.623Z,72.25
2022-09-24T01:34:47.066Z,72.07
2022-09-24T01:37:18.409Z,72.22
2022-09-24T01:39:48.079Z,71.85
2022-09-24T01:42:17.423Z,72.51
2022-09-24T01:44:49.090Z,72.79
2022-09-24T01:47:21.168Z,72.62
2022-09-24T01:49:53.471Z,72.56
2022-09-24T01:52:26.920Z,73.00
2022-09-24T01:54:57.965Z,73.63
2022-09-24T01:57:30.075Z,73.51
2022-09-24T02:00:05.079Z,73.39
2022-09-24T02:02:46.310Z,73.47
2022-09-24T02:05:21.100Z,73.18
2022-09-24T02:07:58.460Z,72.85
2022-09-24T02:10:28.600Z,72.83
2022-09-24T02:13:03.069Z,72.87
2022-09-24T02:15:34.973Z,73.19
2022-09-24T02:18:07.992Z,73.12
2022-09-24T02:20:37.853Z,72.81
2022-09-24T02:23:07.088Z,73.17
2022-09-24T02:25:40.709Z,72.99
2022-09-24T02:28:08.391Z,72.38
2022-09-24T02:30:44.065Z,72.44
2022-09-24T02:33:29.052Z,72.40
2022-09-24T02:35:57.450Z,72.30
2022-09-24T02:38:25.384Z,72.27
2022-09-24T02:40:54.654Z,71.87
2022-09-24T02:43:22.571Z,72.38
2022-09-24T02:45:51.753Z,72.35
2022-09-24T02:48:19.678Z,72.07
2022-09-24T02:50:47.702Z,72.20
2022-09-24T02:53:15.552Z,71.90
2022-09-24T02:55:43.510Z,71.93
2022-09-24T02:58:11.360Z,71.67
2022-09-24T03:00:39.392Z,72.10
2022-09-24T03:03:08.715Z,72.17
2022-09-24T03:05:36.702Z,72.00
2022-09-24T03:08:04.588Z,72.15
2022-09-24T03:10:32.394Z,72.54
2022-09-24T03:13:00.409Z,72.74
2022-09-24T03:15:29.745Z,72.16
2022-09-24T03:17:57.645Z,72.08
2022-09-24T03:20:26.819Z,72.27
2022-09-24T03:22:54.645Z,72.54
2022-09-24T03:25:22.736Z,72.93
2022-09-24T03:27:50.577Z,72.86
2022-09-24T03:30:36.605Z,72.66
2022-09-24T03:33:04.538Z,72.43
2022-09-24T03:35:34.012Z,72.12
2022-09-24T03:38:02.094Z,71.93
2022-09-24T03:40:30.147Z,72.09
2022-09-24T03:42:58.088Z,71.93
2022-09-24T03:45:25.924Z,72.10
2022-09-24T03:47:53.751Z,72.28
2022-09-24T03:50:21.741Z,72.18
2022-09-24T03:52:50.976Z,72.19
2022-09-24T03:55:19.068Z,72.04
2022-09-24T03:57:46.986Z,71.85
2022-09-24T04:00:15.677Z,71.80
2022-09-24T04:02:43.726Z,71.51
2022-09-24T04:05:11.777Z,71.67
2022-09-24T04:07:39.836Z,71.80
2022-09-24T04:10:10.220Z,71.72
2022-09-24T04:12:38.115Z,71.55
2022-09-24T04:15:06.815Z,71.61
2022-09-24T04:17:34.679Z,71.64
2022-09-24T04:20:02.939Z,71.37
2022-09-24T04:22:31.469Z,71.24
2022-09-24T04:24:59.286Z,71.44
2022-09-24T04:27:28.545Z,71.30
2022-09-24T04:29:56.637Z,71.46
2022-09-24T04:32:24.499Z,71.20
2022-09-24T04:34:52.365Z,71.41
2022-09-24T04:37:20.181Z,70.84
2022-09-24T04:39:48.011Z,71.00
2022-09-24T04:42:19.173Z,70.75
2022-09-24T04:44:51.717Z,71.02
2022-09-24T04:47:25.934Z,70.45
2022-09-24T04:49:53.945Z,70.54
2022-09-24T04:52:29.750Z,70.34
2022-09-24T04:54:58.080Z,70.19
2022-09-24T04:57:25.917Z,70.33
2022-09-24T04:59:55.307Z,70.23
2022-09-24T05:02:24.216Z,70.51
2022-09-24T05:04:52.210Z,70.24
2022-09-24T05:07:20.214Z,70.28
2022-09-24T05:09:48.133Z,70.22
2022-09-24T05:12:16.151Z,70.18
2022-09-24T05:14:44.101Z,70.01
2022-09-24T05:17:13.402Z,69.95
2022-09-24T05:19:41.366Z,69.45
2022-09-24T05:22:09.332Z,69.83
2022-09-24T05:24:37.170Z,69.59
2022-09-24T05:27:11.094Z,69.43
2022-09-24T05:29:40.019Z,69.51
2022-09-24T05:32:09.082Z,69.60
2022-09-24T05:34:38.548Z,69.40
2022-09-24T05:37:06.955Z,69.69
2022-09-24T05:39:34.906Z,69.69
2022-09-24T05:42:04.285Z,69.46
2022-09-24T05:44:32.661Z,69.39
2022-09-24T05:47:01.072Z,69.75
2022-09-24T05:49:29.055Z,69.82
2022-09-24T05:51:58.225Z,70.13
2022-09-24T05:54:26.288Z,69.58
2022-09-24T05:56:54.353Z,69.51
2022-09-24T05:59:22.258Z,69.99
2022-09-24T06:01:50.241Z,69.67
2022-09-24T06:04:18.165Z,69.80
2022-09-24T06:06:46.099Z,69.22
2022-09-24T06:09:15.393Z,69.40
2022-09-24T06:11:43.924Z,69.17
2022-09-24T06:14:13.121Z,69.35
2022-09-24T06:16:41.090Z,69.15
2022-09-24T06:19:09.321Z,69.46
2022-09-24T06:21:37.177Z,69.13
2022-09-24T06:24:05.394Z,69.00
2022-09-24T06:26:34.866Z,69.08
2022-09-24T06:29:05.265Z,69.22
2022-09-24T06:31:34.674Z,68.88
2022-09-24T06:34:03.692Z,68.90
2022-09-24T06:36:33.879Z,68.62
2022-09-24T06:39:02.143Z,68.56
2022-09-24T06:41:30.205Z,68.66
2022-09-24T06:43:59.648Z,68.45
2022-09-24T06:46:27.664Z,68.59
2022-09-24T06:48:55.643Z,68.34
2022-09-24T06:51:23.518Z,68.39
2022-09-24T06:53:52.416Z,68.26
2022-09-24T06:56:20.403Z,68.17
2022-09-24T06:58:48.258Z,68.13
2022-09-24T07:01:17.571Z,68.14
2022-09-24T07:03:45.483Z,68.27
2022-09-24T07:06:13.301Z,68.17
2022-09-24T07:08:41.253Z,67.93
2022-09-24T07:11:09.177Z,68.32
2022-09-24T07:13:37.253Z,67.96
2022-09-24T07:16:05.190Z,67.32
2022-09-24T07:18:34.509Z,67.83
2022-09-24T07:21:02.383Z,67.39
2022-09-24T07:23:30.784Z,67.59
2022-09-24T07:25:59.052Z,67.71
2022-09-24T07:28:27.245Z,67.75
2022-09-24T07:30:59.807Z,68.18
2022-09-24T07:33:28.401Z,68.06
2022-09-24T07:35:57.683Z,67.72
2022-09-24T07:38:25.559Z,67.96
2022-09-24T07:40:54.221Z,67.54
2022-09-24T07:43:22.678Z,67.37
2022-09-24T07:45:50.505Z,67.02
2022-09-24T07:48:19.165Z,66.50
2022-09-24T07:50:47.143Z,66.35
2022-09-24T07:53:16.891Z,66.40
2022-09-24T07:55:45.460Z,66.63
2022-09-24T07:58:14.967Z,66.82
2022-09-24T08:00:43.461Z,66.73
2022-09-24T08:03:11.984Z,67.22
2022-09-24T08:05:45.141Z,67.74
2022-09-24T08:08:13.117Z,67.85
2022-09-24T08:10:43.025Z,68.37
2022-09-24T08:13:11.132Z,68.86
2022-09-24T08:15:39.301Z,68.78
2022-09-24T08:18:07.708Z,68.72
2022-09-24T08:20:38.069Z,68.93
2022-09-24T08:23:09.984Z,68.92
2022-09-24T08:25:39.352Z,68.68
2022-09-24T08:28:11.313Z,68.73
2022-09-24T08:30:40.809Z,67.82
2022-09-24T08:33:08.968Z,67.81
2022-09-24T08:35:38.373Z,67.53
2022-09-24T08:38:07.228Z,67.34
2022-09-24T08:40:40.416Z,67.14
2022-09-24T08:43:36.277Z,67.60
2022-09-24T08:46:32.341Z,67.64
2022-09-24T08:49:03.422Z,67.64
2022-09-24T08:51:39.275Z,67.31
2022-09-24T08:54:10.642Z,67.33
2022-09-24T08:56:43.959Z,67.54
2022-09-24T08:59:25.523Z,67.32
2022-09-24T09:02:01.529Z,67.11
2022-09-24T09:04:40.518Z,66.49
2022-09-24T09:07:17.774Z,65.56
2022-09-24T09:09:51.068Z,65.61
2022-09-24T09:12:24.086Z,65.34
2022-09-24T09:14:59.814Z,65.50
2022-09-24T09:17:37.498Z,65.94
2022-09-24T09:20:08.905Z,65.53
2022-09-24T09:22:41.213Z,65.52
2022-09-24T09:25:19.753Z,65.88
2022-09-24T09:27:51.237Z,65.74
2022-09-24T09:30:21.997Z,66.02
2022-09-24T09:33:13.313Z,65.92
2022-09-24T09:35:51.099Z,65.46
2022-09-24T09:38:26.135Z,65.55
2022-09-24T09:41:01.861Z,65.45
2022-09-24T09:43:31.004Z,65.33
2022-09-24T09:46:11.942Z,65.15
2022-09-24T09:48:47.357Z,64.69
2022-09-24T09:51:22.527Z,64.81
2022-09-24T09:53:58.243Z,64.48
2022-09-24T09:56:28.690Z,64.62
2022-09-24T09:59:06.917Z,64.56
2022-09-24T10:01:40.617Z,64.51
2022-09-24T10:04:24.841Z,64.54
2022-09-24T10:06:52.736Z,64.07
2022-09-24T10:09:20.801Z,64.44
2022-09-24T10:11:49.391Z,64.39
2022-09-24T10:14:20.652Z,63.38
2022-09-24T10:16:55.815Z,64.04
2022-09-24T10:19:25.840Z,63.69
2022-09-24T10:21:57.446Z,64.54
2022-09-24T10:24:27.418Z,64.72
2022-09-24T10:26:55.676Z,64.25
2022-09-24T10:29:44.249Z,64.82
2022-09-24T10:32:18.264Z,65.00
2022-09-24T10:34:56.496Z,65.09
2022-09-24T10:37:24.821Z,65.47
2022-09-24T10:40:00.040Z,65.74
2022-09-24T10:42:29.586Z,66.25
2022-09-24T10:45:01.984Z,66.38
2022-09-24T10:47:40.943Z,66.71
2022-09-24T10:50:22.158Z,66.91
2022-09-24T10:52:54.362Z,66.79
2022-09-24T10:55:39.190Z,67.16
2022-09-24T10:58:25.118Z,66.72
2022-09-24T11:01:04.937Z,66.97
2022-09-24T11:04:09.738Z,66.08
2022-09-24T11:06:50.387Z,65.89
2022-09-24T11:09:29.768Z,66.16
2022-09-24T11:12:09.293Z,65.68
2022-09-24T11:14:59.958Z,65.61
2022-09-24T11:17:37.949Z,64.79
2022-09-24T11:20:32.348Z,65.14
2022-09-24T11:23:22.591Z,64.84
2022-09-24T11:26:00.276Z,64.80
2022-09-24T11:28:44.983Z,64.67
2022-09-24T11:31:20.894Z,64.24
2022-09-24T11:34:09.444Z,64.93
2022-09-24T11:37:01.353Z,65.26
2022-09-24T11:39:44.266Z,65.79
2022-09-24T11:42:23.529Z,65.62
2022-09-24T11:45:14.845Z,65.17
2022-09-24T11:47:59.109Z,64.79
2022-09-24T11:50:42.510Z,65.02
2022-09-24T11:53:25.181Z,64.56
2022-09-24T11:55:59.155Z,64.27
2022-09-24T11:58:32.810Z,64.44
2022-09-24T12:01:10.319Z,64.79
2022-09-24T12:03:44.907Z,64.12
2022-09-24T12:06:19.021Z,63.42
2022-09-24T12:08:54.874Z,63.63
2022-09-24T12:11:30.834Z,63.45
2022-09-24T12:14:04.436Z,63.29
2022-09-24T12:16:38.266Z,62.96
2022-09-24T12:19:13.484Z,63.60
2022-09-24T12:21:43.974Z,63.49
2022-09-24T12:24:18.664Z,63.84
2022-09-24T12:26:48.124Z,63.77
2022-09-24T12:30:02.958Z,63.74
2022-09-24T12:32:57.804Z,63.97
2022-09-24T12:35:37.811Z,64.04
2022-09-24T12:38:09.774Z,63.83
2022-09-24T12:41:14.295Z,64.41
2022-09-24T12:43:45.802Z,63.84
2022-09-24T12:46:18.706Z,63.49
2022-09-24T12:48:49.461Z,63.87
2022-09-24T12:51:22.235Z,63.58
2022-09-24T12:53:59.570Z,63.75
2022-09-24T12:56:31.050Z,63.37
2022-09-24T12:58:59.301Z,63.89
2022-09-24T13:01:31.060Z,64.40
2022-09-24T13:04:27.390Z,64.51
2022-09-24T13:06:55.729Z,64.17
2022-09-24T13:09:34.569Z,64.53
2022-09-24T13:12:21.247Z,63.99
2022-09-24T13:14:56.768Z,64.38
2022-09-24T13:17:25.314Z,64.04
2022-09-24T13:19:59.520Z,63.99
2022-09-24T13:22:30.085Z,64.19
2022-09-24T13:25:22.665Z,64.34
2022-09-24T13:28:01.063Z,64.86
2022-09-24T13:30:36.586Z,65.31
2022-09-24T13:33:16.219Z,65.13
2022-09-24T13:35:48.795Z,64.99
2022-09-24T13:38:22.805Z,64.95
2022-09-24T13:40:57.834Z,65.21
2022-09-24T13:43:38.141Z,64.79
2022-09-24T13:46:12.052Z,65.06
2022-09-24T13:48:45.163Z,65.30
2022-09-24T13:51:15.026Z,65.16
2022-09-24T13:53:48.409Z,64.71
2022-09-24T13:56:18.940Z,64.78
2022-09-24T13:58:51.281Z,65.12
2022-09-24T14:01:22.155Z,65.24
2022-09-24T14:03:55.450Z,64.61
2022-09-24T14:06:34.716Z,64.81
2022-09-24T14:09:02.682Z,64.78
2022-09-24T14:11:30.674Z,64.71
2022-09-24T14:14:16.547Z,65.13
2022-09-24T14:16:44.355Z,64.83
2022-09-24T14:19:15.955Z,64.44
2022-09-24T14:21:49.193Z,64.16
2022-09-24T14:24:22.378Z,64.05
2022-09-24T14:26:54.484Z,63.74
2022-09-24T14:29:28.015Z,64.09
2022-09-24T14:31:59.259Z,64.04
2022-09-24T14:34:31.732Z,64.16
2022-09-24T14:37:09.306Z,64.09
2022-09-24T14:39:42.104Z,64.83
2022-09-24T14:42:14.142Z,64.99
2022-09-24T14:44:47.496Z,65.04
2022-09-24T14:47:26.883Z,64.82
2022-09-24T14:49:55.641Z,64.92
2022-09-24T14:52:30.826Z,65.60
2022-09-24T14:55:15.141Z,66.02
2022-09-24T14:57:48.276Z,66.19
2022-09-24T15:00:25.112Z,66.23
2022-09-24T15:03:01.260Z,66.47
2022-09-24T15:05:30.673Z,66.82
2022-09-24T15:08:28.083Z,66.69
2022-09-24T15:10:57.594Z,66.28
2022-09-24T15:13:28.106Z,66.42
2022-09-24T15:16:05.951Z,66.65
2022-09-24T15:18:35.836Z,66.78
2022-09-24T15:21:08.228Z,66.46
2022-09-24T15:23:36.100Z,66.85
2022-09-24T15:26:04.335Z,66.94
2022-09-24T15:28:32.530Z,67.30
2022-09-24T15:31:00.544Z,67.49
2022-09-24T15:33:29.756Z,67.76
2022-09-24T15:35:57.674Z,67.84
2022-09-24T15:38:25.533Z,68.28
2022-09-24T15:40:53.866Z,67.93
2022-09-24T15:43:23.984Z,68.34
2022-09-24T15:45:52.657Z,68.29
2022-09-24T15:48:20.547Z,67.88
2022-09-24T15:50:51.645Z,67.79
2022-09-24T15:53:23.754Z,67.79
2022-09-24T15:55:55.230Z,67.56
2022-09-24T15:58:23.926Z,67.97
2022-09-24T16:00:52.075Z,67.87
2022-09-24T16:03:23.169Z,67.40
2022-09-24T16:05:52.649Z,67.36
2022-09-24T16:08:20.911Z,67.53
2022-09-24T16:10:49.544Z,67.82
2022-09-24T16:13:17.994Z,67.59
2022-09-24T16:15:45.990Z,67.45
2022-09-24T16:18:16.026Z,66.78
2022-09-24T16:20:45.372Z,65.40
2022-09-24T16:23:15.460Z,63.46
2022-09-24T16:25:43.935Z,62.29
2022-09-24T16:28:11.835Z,60.78
2022-09-24T16:30:39.711Z,60.11
2022-09-24T16:33:07.893Z,59.79
2022-09-24T16:35:35.857Z,59.48
2022-09-24T16:38:03.815Z,60.16
2022-09-24T16:40:33.220Z,60.08
2022-09-24T16:43:01.355Z,60.24
2022-09-24T16:45:29.176Z,60.29
2022-09-24T16:47:57.014Z,60.22
2022-09-24T16:50:24.835Z,59.63
2022-09-24T16:52:55.303Z,59.63
2022-09-24T16:55:24.765Z,60.21
2022-09-24T16:57:54.380Z,60.20
2022-09-24T17:00:22.251Z,60.34
2022-09-24T17:02:50.211Z,60.40
2022-09-24T17:05:18.362Z,60.03
2022-09-24T17:07:46.319Z,60.01
2022-09-24T17:10:13.216Z,59.83
2022-09-24T17:12:41.996Z,59.94
2022-09-24T17:15:13.501Z,59.64
2022-09-24T17:17:49.178Z,59.64
2022-09-24T17:20:18.926Z,59.73
2022-09-24T17:22:48.073Z,59.43
2022-09-24T17:25:16.475Z,59.39
2022-09-24T17:27:44.972Z,59.39
2022-09-24T17:30:15.225Z,59.12
2022-09-24T17:32:43.114Z,59.24
2022-09-24T17:35:11.137Z,58.84
2022-09-24T17:37:39.222Z,58.77
2022-09-24T17:40:08.453Z,58.83
2022-09-24T17:42:36.466Z,59.44
2022-09-24T17:45:04.935Z,59.05
2022-09-24T17:47:54.630Z,58.82
2022-09-24T17:50:22.767Z,58.93
2022-09-24T17:52:50.669Z,58.39
2022-09-24T17:55:18.526Z,58.67
2022-09-24T17:57:46.375Z,58.35
2022-09-24T18:00:15.116Z,58.33
2022-09-24T18:02:44.449Z,58.42
2022-09-24T18:05:12.499Z,58.76
2022-09-24T18:07:41.495Z,58.63
2022-09-24T18:10:10.168Z,58.71
2022-09-24T18:12:38.131Z,58.61
2022-09-24T18:15:06.709Z,58.99
2022-09-24T18:17:34.546Z,58.75
2022-09-24T18:20:04.191Z,58.96
2022-09-24T18:22:32.062Z,58.77
2022-09-24T18:25:01.718Z,59.24
2022-09-24T18:27:31.729Z,59.13
2022-09-24T18:30:02.244Z,58.98
2022-09-24T18:32:31.833Z,59.14
2022-09-24T18:34:59.944Z,59.12
2022-09-24T18:37:29.446Z,59.44
2022-09-24T18:39:57.379Z,59.33
2022-09-24T18:42:26.860Z,59.48
2022-09-24T18:44:54.719Z,59.25
2022-09-24T18:47:22.646Z,59.65
2022-09-24T18:49:50.605Z,59.32
2022-09-24T18:52:18.457Z,59.71
2022-09-24T18:54:47.770Z,59.42
2022-09-24T18:57:15.768Z,59.55
2022-09-24T18:59:45.436Z,59.62
2022-09-24T19:02:14.296Z,59.56
2022-09-24T19:04:42.894Z,59.54
2022-09-24T19:07:10.854Z,59.84
2022-09-24T19:09:38.784Z,59.92
2022-09-24T19:12:08.827Z,59.71
2022-09-24T19:14:36.770Z,59.63
2022-09-24T19:17:07.139Z,59.62
2022-09-24T19:19:35.094Z,59.55
2022-09-24T19:22:03.029Z,59.28
2022-09-24T19:24:30.810Z,59.16
2022-09-24T19:26:58.715Z,59.10
2022-09-24T19:29:28.369Z,59.19
2022-09-24T19:31:56.408Z,59.46
2022-09-24T19:34:24.244Z,59.32
2022-09-24T19:36:52.135Z,59.28
2022-09-24T19:39:19.999Z,59.41
2022-09-24T19:41:48.952Z,59.42
2022-09-24T19:44:17.315Z,59.19
2022-09-24T19:46:46.938Z,59.26
2022-09-24T19:49:14.904Z,59.17
2022-09-24T19:51:42.785Z,59.41
2022-09-24T19:54:11.454Z,59.23
2022-09-24T19:56:40.072Z,59.33
2022-09-24T19:59:08.736Z,59.27
2022-09-24T20:01:37.647Z,59.72
2022-09-24T20:04:08.263Z,60.25
2022-09-24T20:06:38.127Z,59.89
2022-09-24T20:09:06.910Z,60.27
2022-09-24T20:11:35.050Z,60.02
2022-09-24T20:14:03.236Z,60.22
2022-09-24T20:16:32.500Z,60.14
2022-09-24T20:19:02.585Z,60.25
2022-09-24T20:21:35.251Z,60.33
2022-09-24T20:24:04.655Z,60.31
2022-09-24T20:26:51.071Z,60.15
2022-09-24T20:29:20.234Z,60.05
2022-09-24T20:31:52.296Z,60.09
2022-09-24T20:34:21.973Z,60.13
2022-09-24T20:36:51.677Z,60.16
2022-09-24T20:39:19.836Z,59.92
2022-09-24T20:41:49.348Z,60.29
2022-09-24T20:44:17.593Z,60.25
2022-09-24T20:46:46.065Z,60.45
2022-09-24T20:49:19.478Z,60.47
2022-09-24T20:51:50.541Z,60.22
2022-09-24T20:54:22.427Z,60.01
2022-09-24T20:56:50.800Z,59.90
2022-09-24T20:59:18.722Z,60.07
2022-09-24T21:01:47.979Z,59.86
2022-09-24T21:04:15.920Z,60.02
2022-09-24T21:06:43.985Z,60.15
2022-09-24T21:09:12.108Z,60.09
2022-09-24T21:11:41.857Z,60.30
2022-09-24T21:14:12.454Z,60.02
2022-09-24T21:16:40.609Z,60.19
2022-09-24T21:19:08.481Z,59.90
2022-09-24T21:21:38.824Z,59.95
2022-09-24T21:24:09.895Z,60.00
2022-09-24T21:26:39.415Z,60.24
2022-09-24T21:29:11.416Z,60.41
2022-09-24T21:31:41.976Z,60.49
2022-09-24T21:34:10.942Z,60.52
2022-09-24T21:36:44.483Z,60.26
2022-09-24T21:39:15.539Z,60.55
2022-09-24T21:41:44.373Z,60.25
2022-09-24T21:44:15.620Z,60.77
2022-09-24T21:46:43.973Z,61.03
2022-09-24T21:49:12.832Z,60.92
2022-09-24T21:51:41.366Z,60.45
2022-09-24T21:54:14.071Z,60.90
2022-09-24T21:56:42.061Z,60.62
2022-09-24T21:59:24.726Z,60.95
2022-09-24T22:01:55.160Z,60.69
2022-09-24T22:04:23.710Z,61.00
2022-09-24T22:06:52.085Z,60.97
2022-09-24T22:09:20.555Z,61.06
2022-09-24T22:11:48.778Z,61.05
2022-09-24T22:14:16.703Z,61.32
2022-09-24T22:16:44.947Z,61.20
2022-09-24T22:19:14.618Z,61.03
2022-09-24T22:21:42.671Z,61.38
2022-09-24T22:24:10.808Z,61.14
2022-09-24T22:26:38.798Z,61.36
2022-09-24T22:29:06.930Z,61.49
2022-09-24T22:31:34.917Z,61.61
2022-09-24T22:34:20.169Z,61.21
2022-09-24T22:36:49.356Z,61.14
2022-09-24T22:39:17.204Z,61.32
2022-09-24T22:41:45.025Z,61.05
2022-09-24T22:44:13.646Z,60.99
2022-09-24T22:46:41.796Z,61.15
2022-09-24T22:49:11.296Z,60.90
2022-09-24T22:51:40.097Z,61.36
2022-09-24T22:54:11.205Z,61.22
2022-09-24T22:56:39.032Z,61.02
2022-09-24T22:59:06.992Z,61.00
2022-09-24T23:01:40.027Z,61.08
2022-09-24T23:04:08.128Z,60.88
2022-09-24T23:06:36.169Z,60.55
2022-09-24T23:09:05.118Z,60.70
2022-09-24T23:11:35.992Z,60.77
2022-09-24T23:14:05.977Z,60.67
2022-09-24T23:16:35.416Z,60.81
2022-09-24T23:19:05.268Z,60.74
2022-09-24T23:21:33.910Z,61.04
2022-09-24T23:24:03.596Z,61.10
2022-09-24T23:26:31.966Z,61.28
2022-09-24T23:29:02.052Z,61.37
2022-09-24T23:31:32.943Z,61.05
2022-09-24T23:34:01.940Z,61.14
2022-09-24T23:36:32.021Z,60.99
2022-09-24T23:39:00.364Z,61.04
2022-09-24T23:41:31.457Z,61.14
2022-09-24T23:44:00.751Z,61.09
2022-09-24T23:46:28.809Z,60.98
2022-09-24T23:48:57.128Z,61.19
2022-09-24T23:51:25.410Z,61.07
2022-09-24T23:53:53.675Z,61.15
2022-09-24T23:56:21.816Z,60.92
2022-09-24T23:58:49.885Z,61.16
